Terminal Aerodrome Forecast
Issued by NWS

Home | Current Version | Previous Version | Text Only | Print | Product List | Glossary On
Versions: 1 2 3 4 5 6 7 8 9 10 11 12 13 14 15 16 17 18 19 20 21 22 23
000
FTUS46 KLOX 292002 AAA
TAFSBP
TAF AMD
KSBP 292002Z 2920/3018 VRB06KT P6SM OVC017
     FM292100 26008KT P6SM BKN022
     FM292200 27010KT P6SM SCT025
     FM300300 VRB05KT P6SM BKN015
     FM300500 VRB05KT P6SM OVC008
     FM300800 VRB03KT 3SM BR OVC004
     FM301600 VRB03KT 5SM BR OVC007=

USA.gov is the U.S. government's official web portal to all federal, state and local government web resources and services.